Time;durP1;ratioP1;P1;durP2;ratioP2;P2;SDS_P1;SDS_P2;PMS_P1;PMS_P2;Temp;Humidity;BMP_temperature;BMP_pressure;BME280_temperature;BME280_humidity;BME280_pressure;Samples;Min_cycle;Max_cycle;Signal;HPM_P1;HPM_P2
2023/09/08 00:00:21;;;;;;;2.58;1.65;;;23.10;99.90;;;;;;4167072;28;20204;-82
2023/09/08 00:02:22;;;;;;;7.93;2.00;;;23.10;99.90;;;;;;4133059;28;20216;-89
2023/09/08 00:04:23;;;;;;;3.35;1.88;;;23.00;99.90;;;;;;4149523;28;20192;-83
2023/09/08 00:06:24;;;;;;;3.75;2.38;;;23.00;99.90;;;;;;4149446;28;20275;-84
2023/09/08 00:08:25;;;;;;;4.78;1.88;;;23.00;99.90;;;;;;4149431;28;20230;-82
2023/09/08 00:10:26;;;;;;;2.65;1.92;;;23.00;99.90;;;;;;4149398;28;20634;-83
2023/09/08 00:12:26;;;;;;;3.47;1.73;;;22.90;99.90;;;;;;4132282;28;20265;-85
2023/09/08 00:14:27;;;;;;;3.00;1.83;;;22.90;99.90;;;;;;4166643;28;20702;-83
2023/09/08 00:16:29;;;;;;;3.10;2.03;;;23.00;99.90;;;;;;4166994;28;20180;-83
2023/09/08 00:18:30;;;;;;;2.65;1.85;;;23.00;99.90;;;;;;4166882;28;20261;-94
2023/09/08 00:20:30;;;;;;;3.88;1.77;;;23.10;99.90;;;;;;4167020;28;20180;-95
2023/09/08 00:22:31;;;;;;;2.53;1.48;;;23.10;99.90;;;;;;4166583;28;20613;-82
2023/09/08 00:24:32;;;;;;;3.65;1.73;;;23.10;99.90;;;;;;4149152;28;20172;-88
2023/09/08 00:26:33;;;;;;;3.65;2.28;;;23.00;99.90;;;;;;4149063;28;20189;-83
2023/09/08 00:28:33;;;;;;;3.17;1.98;;;23.00;99.90;;;;;;4149161;28;20606;-83
2023/09/08 00:30:34;;;;;;;3.10;2.28;;;22.90;99.90;;;;;;4133019;28;20197;-94
2023/09/08 00:32:35;;;;;;;3.33;1.98;;;22.90;99.90;;;;;;4166444;28;20712;-83
2023/09/08 00:34:36;;;;;;;3.15;2.05;;;22.90;99.90;;;;;;4149033;28;20764;-83
2023/09/08 00:36:37;;;;;;;3.05;2.08;;;22.90;99.90;;;;;;4166659;28;20540;-83
2023/09/08 00:38:37;;;;;;;4.25;1.80;;;22.90;99.90;;;;;;4132768;28;20193;-94
2023/09/08 00:40:38;;;;;;;3.03;2.10;;;22.80;99.90;;;;;;4166238;28;20172;-83
2023/09/08 00:42:39;;;;;;;3.30;2.13;;;22.80;99.90;;;;;;4148560;28;20208;-82
2023/09/08 00:44:40;;;;;;;2.97;1.65;;;22.70;99.90;;;;;;4132503;28;20221;-84
2023/09/08 00:46:40;;;;;;;2.35;1.90;;;22.50;99.90;;;;;;4166405;28;20187;-84
2023/09/08 00:48:42;;;;;;;4.68;1.90;;;22.40;99.90;;;;;;4148680;28;20614;-83
2023/09/08 00:50:42;;;;;;;3.25;2.00;;;22.40;99.90;;;;;;4148784;28;20224;-93
2023/09/08 00:52:43;;;;;;;2.80;1.70;;;22.50;99.90;;;;;;4166496;28;20196;-85
2023/09/08 00:54:44;;;;;;;2.45;1.65;;;22.50;99.90;;;;;;4148629;28;20649;-93
2023/09/08 00:56:48;;;;;;;3.70;2.00;;;22.60;99.90;;;;;;4148824;28;20177;-84
2023/09/08 00:58:49;;;;;;;3.13;2.28;;;22.60;99.90;;;;;;4132298;28;20178;-82
2023/09/08 01:00:50;;;;;;;4.20;2.15;;;22.70;99.90;;;;;;4148641;28;20192;-82
2023/09/08 01:02:50;;;;;;;3.38;1.98;;;22.70;99.90;;;;;;4132114;28;20198;-82
2023/09/08 01:04:51;;;;;;;2.80;2.20;;;22.70;99.90;;;;;;4164622;28;20215;-83
2023/09/08 01:06:55;;;;;;;4.30;2.28;;;22.70;99.90;;;;;;4148852;28;20173;-83
2023/09/08 01:08:56;;;;;;;3.22;2.10;;;22.70;99.90;;;;;;4148853;28;20183;-83
2023/09/08 01:10:58;;;;;;;5.93;2.15;;;22.70;99.90;;;;;;4132392;28;20188;-83
2023/09/08 01:12:59;;;;;;;3.58;2.33;;;22.70;99.90;;;;;;4148030;28;20591;-82
2023/09/08 01:15:00;;;;;;;4.47;2.80;;;22.80;99.90;;;;;;4132076;28;20181;-82
2023/09/08 01:17:01;;;;;;;2.85;1.90;;;22.70;99.90;;;;;;4148390;28;20425;-82
2023/09/08 01:19:04;;;;;;;3.92;2.13;;;22.70;99.90;;;;;;4148499;28;20236;-82
2023/09/08 01:21:29;;;;;;;2.53;1.80;;;22.70;99.90;;;;;;4165948;28;20710;-83
2023/09/08 01:23:48;;;;;;;3.63;2.20;;;22.70;99.90;;;;;;4147945;28;20211;-83
2023/09/08 01:25:55;;;;;;;2.97;2.13;;;22.70;99.90;;;;;;4148144;28;20181;-83
2023/09/08 01:28:00;;;;;;;3.10;1.90;;;22.70;99.90;;;;;;4147881;28;20693;-82
2023/09/08 01:30:02;;;;;;;5.28;2.38;;;22.70;99.90;;;;;;4147935;28;20716;-82
2023/09/08 01:32:04;;;;;;;3.42;2.28;;;22.80;99.90;;;;;;4131833;28;20181;-83
2023/09/08 01:34:06;;;;;;;3.00;2.13;;;22.80;99.90;;;;;;4131752;28;20311;-82
2023/09/08 01:36:08;;;;;;;3.28;2.25;;;22.80;99.90;;;;;;4165580;28;20651;-83
2023/09/08 01:38:10;;;;;;;3.28;2.13;;;22.80;99.90;;;;;;4148256;28;20254;-83
2023/09/08 01:40:11;;;;;;;3.70;2.15;;;22.70;99.90;;;;;;4131733;28;20185;-95
2023/09/08 01:42:12;;;;;;;4.47;2.33;;;22.80;99.90;;;;;;4148104;28;20296;-93
2023/09/08 01:44:13;;;;;;;6.22;2.10;;;22.70;99.90;;;;;;4147919;28;20185;-93
2023/09/08 01:46:14;;;;;;;4.40;2.40;;;22.70;99.90;;;;;;4131689;28;20212;-83
2023/09/08 01:48:15;;;;;;;2.80;1.95;;;22.60;99.90;;;;;;4147921;28;20212;-93
2023/09/08 01:50:21;;;;;;;2.97;1.95;;;22.60;99.90;;;;;;4131536;28;20188;-85
2023/09/08 01:52:22;;;;;;;2.72;1.85;;;22.70;99.90;;;;;;4165245;28;20191;-94
2023/09/08 01:54:22;;;;;;;3.15;2.13;;;22.70;99.90;;;;;;4131307;28;20256;-84
2023/09/08 01:56:23;;;;;;;3.53;2.08;;;22.60;99.90;;;;;;4131558;28;20230;-83
2023/09/08 01:58:24;;;;;;;5.63;2.58;;;22.60;99.90;;;;;;4147769;28;20243;-83
2023/09/08 02:00:25;;;;;;;2.92;1.73;;;22.70;99.90;;;;;;4147986;28;20562;-83
2023/09/08 02:02:26;;;;;;;2.72;1.95;;;22.60;99.90;;;;;;4131503;28;20221;-83
2023/09/08 02:04:27;;;;;;;6.55;2.20;;;22.60;99.90;;;;;;4147856;28;20189;-82
2023/09/08 02:06:27;;;;;;;4.45;2.47;;;22.50;99.90;;;;;;4148080;28;20205;-83
2023/09/08 02:08:28;;;;;;;4.20;2.55;;;22.50;99.90;;;;;;4147864;28;20615;-94
2023/09/08 02:10:29;;;;;;;3.38;2.05;;;22.40;99.90;;;;;;4147752;28;20180;-83
2023/09/08 02:12:30;;;;;;;4.25;2.10;;;22.30;99.90;;;;;;4131335;28;20197;-94
2023/09/08 02:14:30;;;;;;;2.63;1.83;;;22.30;99.90;;;;;;4131145;28;20224;-83
2023/09/08 02:16:31;;;;;;;3.05;1.75;;;22.20;99.90;;;;;;4131303;28;20170;-83
2023/09/08 02:18:32;;;;;;;3.38;1.90;;;22.20;99.90;;;;;;4147541;28;20192;-84
2023/09/08 02:20:33;;;;;;;3.95;2.17;;;22.10;99.90;;;;;;4147284;28;20592;-84
2023/09/08 02:22:33;;;;;;;4.22;1.83;;;22.10;99.90;;;;;;4147366;28;20237;-82
2023/09/08 02:24:35;;;;;;;3.22;1.90;;;22.10;99.90;;;;;;4147738;28;20207;-84
2023/09/08 02:26:35;;;;;;;3.40;2.10;;;22.00;99.90;;;;;;4147664;28;20177;-82
2023/09/08 02:28:36;;;;;;;3.65;1.77;;;22.00;99.90;;;;;;4147552;28;20288;-83
2023/09/08 02:30:37;;;;;;;5.90;2.17;;;21.90;99.90;;;;;;4165039;28;20199;-92
2023/09/08 02:32:38;;;;;;;3.22;2.10;;;21.80;99.90;;;;;;4131112;28;20692;-83
2023/09/08 02:34:39;;;;;;;3.60;1.90;;;21.80;99.90;;;;;;4147415;28;20239;-83
2023/09/08 02:36:41;;;;;;;3.25;1.92;;;21.80;99.90;;;;;;4133943;28;20540;-82
2023/09/08 02:38:42;;;;;;;2.85;2.10;;;21.70;99.90;;;;;;4150592;28;20203;-82
2023/09/08 02:40:43;;;;;;;3.50;2.40;;;21.70;99.90;;;;;;4150907;28;20583;-82
2023/09/08 02:42:45;;;;;;;5.20;2.58;;;21.60;99.90;;;;;;4150915;28;20278;-82
2023/09/08 02:44:46;;;;;;;3.50;2.17;;;21.60;99.90;;;;;;4150810;28;20176;-82
2023/09/08 02:46:47;;;;;;;3.15;1.98;;;21.50;99.90;;;;;;4134595;28;20264;-83
2023/09/08 02:48:48;;;;;;;5.82;1.90;;;21.50;99.90;;;;;;4168177;28;20176;-88
2023/09/08 02:50:49;;;;;;;2.70;1.85;;;21.50;99.90;;;;;;4134650;28;20190;-82
2023/09/08 02:52:49;;;;;;;4.10;2.25;;;21.40;99.90;;;;;;4168194;28;20204;-83
2023/09/08 02:54:50;;;;;;;4.32;2.72;;;21.40;99.90;;;;;;4150411;28;20671;-83
2023/09/08 02:56:51;;;;;;;3.85;2.38;;;21.40;99.90;;;;;;4150473;28;20630;-83
2023/09/08 02:58:53;;;;;;;4.70;2.72;;;21.40;99.90;;;;;;4133994;28;20636;-89
2023/09/08 03:00:53;;;;;;;3.22;2.10;;;21.40;99.90;;;;;;4150231;28;20180;-92
2023/09/08 03:02:55;;;;;;;3.15;2.13;;;21.40;99.90;;;;;;4134131;28;20631;-83
2023/09/08 03:04:56;;;;;;;5.28;2.25;;;21.30;99.90;;;;;;4150291;28;20177;-83
2023/09/08 03:06:57;;;;;;;3.15;2.20;;;21.30;99.90;;;;;;4134196;28;20230;-83
2023/09/08 03:09:01;;;;;;;4.25;2.17;;;21.30;99.90;;;;;;4150564;28;20188;-87
2023/09/08 03:11:01;;;;;;;5.47;2.40;;;21.40;99.90;;;;;;4150198;28;20177;-82
2023/09/08 03:13:03;;;;;;;6.00;2.53;;;21.30;99.90;;;;;;4133675;28;20288;-82
2023/09/08 03:15:04;;;;;;;4.05;2.83;;;21.30;99.90;;;;;;4150157;28;20256;-83
2023/09/08 03:17:05;;;;;;;5.05;3.10;;;21.30;99.90;;;;;;4150164;28;20176;-82
2023/09/08 03:19:06;;;;;;;3.85;2.53;;;21.20;99.90;;;;;;4150034;28;20598;-95
2023/09/08 03:21:10;;;;;;;5.28;2.50;;;21.10;99.90;;;;;;4150064;28;20177;-90
2023/09/08 03:23:12;;;;;;;3.17;2.28;;;21.20;99.90;;;;;;4149904;28;20225;-83
2023/09/08 03:25:15;;;;;;;8.35;3.30;;;21.30;99.90;;;;;;4150085;28;20334;-84
2023/09/08 03:27:17;;;;;;;5.55;2.97;;;21.30;99.90;;;;;;4133961;28;20184;-87
2023/09/08 03:29:18;;;;;;;5.53;2.25;;;21.20;99.90;;;;;;4167628;28;20183;-84
2023/09/08 03:31:18;;;;;;;3.53;2.38;;;21.30;99.90;;;;;;4150180;28;20292;-93
2023/09/08 03:33:20;;;;;;;5.97;2.90;;;21.30;99.90;;;;;;4134024;28;20217;-94
2023/09/08 03:35:21;;;;;;;6.72;3.13;;;21.30;99.90;;;;;;4150113;28;20631;-94
2023/09/08 03:37:22;;;;;;;6.22;2.53;;;21.20;99.90;;;;;;4133719;28;20191;-94
2023/09/08 03:39:24;;;;;;;4.45;1.90;;;21.20;99.90;;;;;;4166317;28;20677;-83
2023/09/08 03:41:25;;;;;;;6.53;2.75;;;21.30;99.90;;;;;;4133598;28;20193;-93
2023/09/08 03:43:25;;;;;;;4.43;2.47;;;21.30;99.90;;;;;;4133680;28;20228;-83
2023/09/08 03:45:26;;;;;;;6.25;2.80;;;21.40;99.90;;;;;;4167433;28;20184;-83
2023/09/08 03:47:27;;;;;;;6.13;2.78;;;21.40;99.90;;;;;;4149726;28;20181;-85
2023/09/08 03:49:27;;;;;;;6.25;2.60;;;21.40;99.90;;;;;;4149716;28;20663;-93
2023/09/08 03:51:28;;;;;;;6.85;2.83;;;21.30;99.90;;;;;;4149727;28;20212;-84
2023/09/08 03:53:29;;;;;;;9.23;2.78;;;21.30;99.90;;;;;;4133256;28;20224;-87
2023/09/08 03:55:30;;;;;;;5.03;2.97;;;21.30;99.90;;;;;;4149733;28;20215;-84
2023/09/08 03:57:30;;;;;;;3.08;1.98;;;21.20;99.90;;;;;;4167084;28;20704;-83
2023/09/08 03:59:31;;;;;;;3.58;2.33;;;21.20;99.90;;;;;;4149398;28;20212;-84
2023/09/08 04:01:32;;;;;;;4.75;3.00;;;21.20;99.90;;;;;;4133259;28;20174;-90
2023/09/08 04:03:33;;;;;;;4.70;2.20;;;21.20;99.90;;;;;;4133437;28;20239;-86
2023/09/08 04:05:34;;;;;;;4.53;2.47;;;21.20;99.90;;;;;;4167009;28;20180;-90
2023/09/08 04:07:34;;;;;;;4.25;2.88;;;21.20;99.90;;;;;;4167044;28;20259;-90
2023/09/08 04:09:35;;;;;;;6.38;2.88;;;21.10;99.90;;;;;;4149810;28;20659;-93
2023/09/08 04:11:36;;;;;;;4.05;2.38;;;21.10;99.90;;;;;;4133285;28;20174;-96
2023/09/08 04:13:36;;;;;;;6.22;3.00;;;21.10;99.90;;;;;;4165190;28;20212;-90
2023/09/08 04:15:38;;;;;;;3.63;2.70;;;21.10;99.90;;;;;;4149255;28;20177;-83
2023/09/08 04:17:38;;;;;;;4.00;2.70;;;21.10;99.90;;;;;;4133414;28;20184;-95
2023/09/08 04:19:39;;;;;;;5.95;2.78;;;21.00;99.90;;;;;;4149330;28;20267;-83
2023/09/08 04:21:41;;;;;;;4.22;2.33;;;21.10;99.90;;;;;;4166782;28;20172;-84
2023/09/08 04:23:42;;;;;;;6.68;3.08;;;21.10;99.90;;;;;;4149418;28;20562;-83
2023/09/08 04:25:43;;;;;;;5.53;2.80;;;21.00;99.90;;;;;;4133238;28;20230;-83
2023/09/08 04:27:44;;;;;;;4.15;2.20;;;21.00;99.90;;;;;;4132890;28;20268;-82
2023/09/08 04:29:45;;;;;;;3.58;2.20;;;21.00;99.90;;;;;;4133104;28;20616;-82
2023/09/08 04:31:46;;;;;;;4.85;2.83;;;20.90;99.90;;;;;;4148952;28;20180;-82
2023/09/08 04:33:47;;;;;;;5.63;2.78;;;21.00;99.90;;;;;;4148667;28;20216;-82
2023/09/08 04:35:48;;;;;;;6.53;2.67;;;21.00;99.90;;;;;;4148797;28;20223;-82
2023/09/08 04:37:49;;;;;;;6.38;3.20;;;20.90;99.90;;;;;;4148674;28;20247;-82
2023/09/08 04:39:50;;;;;;;6.55;2.80;;;20.80;99.90;;;;;;4148674;28;20556;-83
2023/09/08 04:41:50;;;;;;;5.07;2.72;;;20.70;99.90;;;;;;4148734;28;20173;-85
2023/09/08 04:43:52;;;;;;;4.20;2.47;;;20.70;99.90;;;;;;4166436;28;20187;-94
2023/09/08 04:45:53;;;;;;;4.65;3.03;;;20.70;99.90;;;;;;4132496;28;20217;-83
2023/09/08 04:47:55;;;;;;;5.57;2.88;;;20.70;99.90;;;;;;4148789;28;20192;-93
2023/09/08 04:49:55;;;;;;;5.05;3.00;;;20.70;99.90;;;;;;4148789;28;20603;-93
2023/09/08 04:51:57;;;;;;;4.43;2.50;;;20.60;99.90;;;;;;4148895;28;20216;-95
2023/09/08 04:53:59;;;;;;;4.22;2.80;;;20.60;99.90;;;;;;4132664;28;20225;-82
2023/09/08 04:56:01;;;;;;;4.82;2.65;;;20.60;99.90;;;;;;4148770;28;20268;-82
2023/09/08 04:58:03;;;;;;;5.68;3.05;;;20.60;99.90;;;;;;4148284;28;20216;-82
2023/09/08 05:00:05;;;;;;;6.05;3.05;;;20.60;99.90;;;;;;4148739;28;20184;-94
2023/09/08 05:02:06;;;;;;;5.60;2.85;;;20.50;99.90;;;;;;4148954;28;20200;-83
2023/09/08 05:04:07;;;;;;;6.97;3.20;;;20.50;99.90;;;;;;4148562;28;20563;-83
2023/09/08 05:06:07;;;;;;;6.03;3.40;;;20.50;99.90;;;;;;4148594;28;20177;-83
2023/09/08 05:08:08;;;;;;;4.88;3.05;;;20.50;99.90;;;;;;4148507;28;20181;-83
2023/09/08 05:10:09;;;;;;;4.97;3.17;;;20.50;99.90;;;;;;4148387;28;20200;-83
2023/09/08 05:12:12;;;;;;;8.63;3.05;;;20.50;99.90;;;;;;4132349;28;20202;-83
2023/09/08 05:14:13;;;;;;;4.80;2.85;;;20.50;99.90;;;;;;4132111;28;20268;-83
2023/09/08 05:16:14;;;;;;;5.72;2.65;;;20.40;99.90;;;;;;4148391;28;20215;-83
2023/09/08 05:18:20;;;;;;;5.72;3.20;;;20.40;99.90;;;;;;4164794;28;20315;-83
2023/09/08 05:20:21;;;;;;;3.78;2.58;;;20.30;99.90;;;;;;4148436;28;20216;-83
2023/09/08 05:22:21;;;;;;;4.18;2.25;;;20.40;99.90;;;;;;4131780;28;20228;-85
2023/09/08 05:24:25;;;;;;;5.07;2.80;;;20.40;99.90;;;;;;4132223;28;20584;-82
2023/09/08 05:26:26;;;;;;;7.20;2.80;;;20.50;99.90;;;;;;4132094;28;20186;-83
2023/09/08 05:28:27;;;;;;;4.25;2.60;;;20.40;99.90;;;;;;4131914;28;20189;-94
2023/09/08 05:30:28;;;;;;;4.70;2.80;;;20.50;99.90;;;;;;4148460;28;20185;-83
2023/09/08 05:32:29;;;;;;;4.65;2.55;;;20.60;99.90;;;;;;4131776;28;20572;-93
2023/09/08 05:34:30;;;;;;;3.95;2.72;;;20.60;99.90;;;;;;4131623;28;20228;-90
2023/09/08 05:36:32;;;;;;;4.88;2.88;;;20.60;99.90;;;;;;4148047;28;20282;-82
2023/09/08 05:38:33;;;;;;;4.82;2.83;;;20.60;99.90;;;;;;4148192;28;20199;-85
2023/09/08 05:40:35;;;;;;;4.28;2.67;;;20.70;99.90;;;;;;4131843;28;20190;-82
2023/09/08 05:42:36;;;;;;;4.30;2.47;;;20.70;99.90;;;;;;4131759;28;20201;-89
2023/09/08 05:44:36;;;;;;;4.95;3.05;;;20.70;99.90;;;;;;4147802;28;20184;-92
2023/09/08 05:46:37;;;;;;;7.72;3.38;;;20.80;99.90;;;;;;4148111;28;20177;-93
2023/09/08 05:48:38;;;;;;;4.57;2.95;;;20.80;99.90;;;;;;4131799;28;20253;-90
2023/09/08 05:50:39;;;;;;;4.20;2.40;;;20.80;99.90;;;;;;4147902;28;20192;-83
2023/09/08 05:52:41;;;;;;;4.55;2.83;;;20.90;99.90;;;;;;4131661;28;20271;-93
2023/09/08 05:54:42;;;;;;;5.90;2.65;;;21.00;99.90;;;;;;4147540;28;20721;-83
2023/09/08 05:56:44;;;;;;;5.18;2.55;;;21.00;99.90;;;;;;4131681;28;20192;-85
2023/09/08 05:58:45;;;;;;;5.13;2.97;;;21.00;99.90;;;;;;4147784;28;20189;-83
2023/09/08 06:00:46;;;;;;;5.07;2.38;;;21.00;99.90;;;;;;4147861;28;20280;-83
2023/09/08 06:02:47;;;;;;;5.60;2.80;;;21.10;99.90;;;;;;4147693;28;20208;-95
2023/09/08 06:04:50;;;;;;;5.50;3.17;;;21.10;99.90;;;;;;4131594;28;20189;-83
2023/09/08 06:06:51;;;;;;;4.18;2.33;;;21.20;99.90;;;;;;4131881;28;20193;-93
2023/09/08 06:08:52;;;;;;;5.20;2.90;;;21.20;99.90;;;;;;4131495;28;20595;-83
2023/09/08 06:10:53;;;;;;;3.88;2.53;;;21.20;99.90;;;;;;4130852;28;20200;-86
2023/09/08 06:12:54;;;;;;;4.53;2.70;;;21.20;99.90;;;;;;4147513;28;20744;-83
2023/09/08 06:14:55;;;;;;;5.00;2.38;;;21.10;99.90;;;;;;4147585;28;20323;-83
2023/09/08 06:16:56;;;;;;;7.45;3.13;;;21.10;99.90;;;;;;4147557;28;20215;-94
2023/09/08 06:18:57;;;;;;;6.22;2.92;;;21.10;99.90;;;;;;4131332;28;20189;-91
2023/09/08 06:20:58;;;;;;;4.25;2.22;;;21.20;99.90;;;;;;4131463;28;20228;-83
2023/09/08 06:22:59;;;;;;;4.55;2.92;;;21.20;99.90;;;;;;4147344;28;20212;-83
2023/09/08 06:24:59;;;;;;;4.53;3.03;;;21.20;99.90;;;;;;4147817;28;20192;-83
2023/09/08 06:27:01;;;;;;;4.97;2.75;;;21.10;99.90;;;;;;4131450;28;20268;-83
2023/09/08 06:29:02;;;;;;;4.80;2.33;;;21.00;99.90;;;;;;4147583;28;20196;-83
2023/09/08 06:31:05;;;;;;;5.43;2.92;;;21.00;99.90;;;;;;4147599;28;20173;-82
2023/09/08 06:33:05;;;;;;;4.00;2.60;;;21.10;99.90;;;;;;4131348;28;20663;-83
2023/09/08 06:35:07;;;;;;;5.10;3.15;;;21.20;99.90;;;;;;4147599;28;20278;-94
2023/09/08 06:37:08;;;;;;;4.15;2.75;;;21.20;99.90;;;;;;4147380;28;20279;-85
2023/09/08 06:39:09;;;;;;;4.03;2.85;;;21.30;99.90;;;;;;4147568;28;20757;-95
2023/09/08 06:41:11;;;;;;;4.85;2.75;;;21.30;99.90;;;;;;4147418;28;20176;-93
2023/09/08 06:43:12;;;;;;;3.13;2.10;;;21.20;99.90;;;;;;4130736;28;20260;-84
2023/09/08 06:45:20;;;;;;;5.38;2.63;;;21.20;99.90;;;;;;4131877;28;20176;-84
2023/09/08 06:47:21;;;;;;;5.18;2.70;;;21.30;99.90;;;;;;4131161;28;20193;-83
2023/09/08 06:49:22;;;;;;;5.10;2.67;;;21.50;99.90;;;;;;4131201;28;20185;-83
2023/09/08 06:51:23;;;;;;;4.95;2.70;;;21.80;99.90;;;;;;4131360;28;20174;-90
2023/09/08 06:53:24;;;;;;;5.60;2.70;;;22.00;99.90;;;;;;4146909;28;20606;-88
2023/09/08 06:55:25;;;;;;;5.53;2.53;;;22.20;99.90;;;;;;4147336;28;20251;-83
2023/09/08 06:57:25;;;;;;;6.80;2.95;;;22.30;99.90;;;;;;4147338;28;20181;-84
2023/09/08 06:59:27;;;;;;;4.38;2.70;;;22.40;99.90;;;;;;4147200;28;20239;-82
2023/09/08 07:01:28;;;;;;;4.05;2.35;;;22.50;99.90;;;;;;4164782;28;20542;-83
2023/09/08 07:03:36;;;;;;;5.25;2.40;;;22.50;99.90;;;;;;4147324;28;20342;-94
2023/09/08 07:05:39;;;;;;;6.22;3.13;;;22.40;99.90;;;;;;4163678;28;20179;-91
2023/09/08 07:07:40;;;;;;;6.57;2.97;;;22.40;99.90;;;;;;4147381;28;20526;-95
2023/09/08 07:09:41;;;;;;;7.95;2.80;;;22.70;99.90;;;;;;4147260;28;20255;-94
2023/09/08 07:11:42;;;;;;;4.43;2.55;;;23.50;99.90;;;;;;4130861;28;20197;-83
2023/09/08 07:13:43;;;;;;;5.45;2.50;;;24.80;99.90;;;;;;4147026;28;20232;-83
2023/09/08 07:15:44;;;;;;;5.95;2.75;;;26.50;99.90;;;;;;4147433;28;20570;-83
2023/09/08 07:17:45;;;;;;;4.70;3.35;;;28.00;99.90;;;;;;4147321;28;20667;-83
2023/09/08 07:19:46;;;;;;;3.63;2.35;;;29.20;99.90;;;;;;4164378;28;20176;-83
2023/09/08 07:21:47;;;;;;;6.43;2.72;;;30.00;99.90;;;;;;4132056;28;20553;-84
2023/09/08 07:23:48;;;;;;;8.00;2.88;;;30.60;99.90;;;;;;4149882;28;20205;-94
2023/09/08 07:25:49;;;;;;;3.85;2.40;;;31.30;99.90;;;;;;4133600;28;20181;-84
2023/09/08 07:27:53;;;;;;;3.60;2.33;;;31.90;99.90;;;;;;4150239;28;20218;-85
2023/09/08 07:29:55;;;;;;;6.45;4.05;;;32.70;99.90;;;;;;4133829;28;20209;-84
2023/09/08 07:31:56;;;;;;;5.72;2.80;;;32.70;99.90;;;;;;4133556;28;20687;-84
2023/09/08 07:33:57;;;;;;;4.43;2.55;;;33.30;99.90;;;;;;4166473;28;20207;-84
2023/09/08 07:36:02;;;;;;;4.45;2.95;;;33.70;99.90;;;;;;4150015;28;20275;-84
2023/09/08 07:38:03;;;;;;;2.88;2.58;;;34.00;99.90;;;;;;4149596;28;20223;-84
2023/09/08 07:40:05;;;;;;;6.18;3.20;;;34.50;99.90;;;;;;4149877;28;20180;-85
2023/09/08 07:42:06;;;;;;;4.40;2.53;;;34.70;99.90;;;;;;4167220;28;20176;-81
2023/09/08 07:44:07;;;;;;;3.47;2.60;;;34.60;99.90;;;;;;4149957;28;20168;-90
2023/09/08 07:46:08;;;;;;;3.40;2.47;;;34.60;99.90;;;;;;4149751;28;20188;-82
2023/09/08 07:48:08;;;;;;;3.50;2.45;;;34.90;99.90;;;;;;4133199;28;20189;-81
2023/09/08 07:50:19;;;;;;;7.22;2.65;;;35.00;99.90;;;;;;4149619;28;20230;-81
2023/09/08 07:52:20;;;;;;;4.20;2.90;;;35.20;99.90;;;;;;4167068;28;20192;-82
2023/09/08 07:54:21;;;;;;;4.57;2.95;;;35.30;99.90;;;;;;4133181;28;20224;-82
2023/09/08 07:56:22;;;;;;;4.63;3.00;;;35.40;99.90;;;;;;4149577;28;20180;-82
2023/09/08 07:58:22;;;;;;;5.22;2.95;;;35.80;99.90;;;;;;4149627;28;20183;-82
2023/09/08 08:00:23;;;;;;;4.97;2.47;;;36.20;99.90;;;;;;4133369;28;20553;-82
2023/09/08 08:02:24;;;;;;;6.57;2.95;;;36.70;99.90;;;;;;4149445;28;20705;-82
2023/09/08 08:04:25;;;;;;;4.65;2.85;;;37.00;99.90;;;;;;4167176;28;20699;-87
2023/09/08 08:06:27;;;;;;;4.43;2.63;;;36.80;99.90;;;;;;4149685;28;20180;-82
2023/09/08 08:08:27;;;;;;;4.55;3.00;;;36.30;99.90;;;;;;4133563;28;20586;-81
2023/09/08 08:10:28;;;;;;;3.60;2.22;;;36.30;99.90;;;;;;4149658;28;20279;-82
2023/09/08 08:12:29;;;;;;;4.55;2.45;;;36.80;99.90;;;;;;4149175;28;20207;-93
2023/09/08 08:14:30;;;;;;;4.55;2.53;;;36.40;99.90;;;;;;4148968;28;20279;-82
2023/09/08 08:16:30;;;;;;;6.40;2.72;;;36.50;99.90;;;;;;4133179;28;20200;-82
2023/09/08 08:18:31;;;;;;;3.03;2.67;;;36.40;99.90;;;;;;4133093;28;20187;-82
2023/09/08 08:20:35;;;;;;;3.50;2.75;;;36.20;99.90;;;;;;4149354;28;20566;-82
2023/09/08 08:22:37;;;;;;;5.57;2.53;;;36.50;99.90;;;;;;4166828;28;20197;-85
2023/09/08 08:24:38;;;;;;;3.42;2.55;;;36.50;99.90;;;;;;4166907;28;20183;-82
2023/09/08 08:26:39;;;;;;;4.38;2.72;;;36.20;99.90;;;;;;4149254;28;20184;-93
2023/09/08 08:28:39;;;;;;;4.18;2.63;;;36.00;99.90;;;;;;4149177;28;20180;-82
2023/09/08 08:30:40;;;;;;;3.85;2.50;;;36.40;99.90;;;;;;4167442;28;20294;-93
2023/09/08 08:32:41;;;;;;;3.15;2.13;;;36.60;99.90;;;;;;4148768;28;20189;-92
2023/09/08 08:34:42;;;;;;;3.28;2.70;;;36.00;99.90;;;;;;4148612;28;20316;-82
2023/09/08 08:36:42;;;;;;;3.33;2.30;;;36.00;99.90;;;;;;4149160;28;20631;-89
2023/09/08 08:38:43;;;;;;;3.97;2.58;;;36.30;99.90;;;;;;4149023;28;20191;-82
2023/09/08 08:40:44;;;;;;;3.45;2.58;;;36.40;99.90;;;;;;4148989;28;20631;-82
2023/09/08 08:42:45;;;;;;;3.50;2.40;;;35.60;99.90;;;;;;4166335;28;20198;-82
2023/09/08 08:44:46;;;;;;;3.55;2.53;;;36.40;99.90;;;;;;4149139;28;20184;-82
2023/09/08 08:46:47;;;;;;;4.30;2.90;;;36.10;99.90;;;;;;4166407;28;20229;-91
2023/09/08 08:48:49;;;;;;;2.80;2.45;;;35.90;99.90;;;;;;4148993;28;20181;-92
2023/09/08 08:50:52;;;;;;;2.78;2.45;;;35.90;99.90;;;;;;4148595;28;20288;-91
2023/09/08 08:52:52;;;;;;;3.42;2.55;;;36.30;99.90;;;;;;4148647;28;20274;-90
2023/09/08 08:54:54;;;;;;;4.60;3.05;;;36.30;99.90;;;;;;4148517;28;20223;-93
2023/09/08 08:56:54;;;;;;;3.00;2.35;;;36.30;99.90;;;;;;4148675;28;20181;-84
2023/09/08 08:58:56;;;;;;;2.95;2.25;;;36.10;99.90;;;;;;4132462;28;20205;-84
2023/09/08 09:00:59;;;;;;;3.83;2.28;;;35.80;99.90;;;;;;4148892;28;20192;-89
2023/09/08 09:03:01;;;;;;;4.75;3.15;;;36.10;99.90;;;;;;4148414;28;20283;-82
2023/09/08 09:05:03;;;;;;;3.30;2.63;;;36.50;99.90;;;;;;4166379;28;20508;-82
2023/09/08 09:07:06;;;;;;;4.75;3.20;;;36.80;99.90;;;;;;4166330;28;20164;-82
2023/09/08 09:09:08;;;;;;;3.60;2.92;;;36.80;99.90;;;;;;4148747;28;20184;-92
2023/09/08 09:11:09;;;;;;;7.63;3.00;;;36.70;99.90;;;;;;4148494;28;20177;-92
2023/09/08 09:13:10;;;;;;;3.55;2.45;;;36.60;99.90;;;;;;4165929;28;20219;-82
2023/09/08 09:15:12;;;;;;;3.25;2.45;;;37.60;99.90;;;;;;4148704;28;20195;-82
2023/09/08 09:17:14;;;;;;;4.50;3.10;;;37.40;99.90;;;;;;4166055;28;20171;-84
2023/09/08 09:19:25;;;;;;;3.78;3.17;;;37.50;99.90;;;;;;4148240;28;20180;-83
2023/09/08 09:21:51;;;;;;;4.18;2.70;;;38.00;99.90;;;;;;4148477;28;20184;-91
2023/09/08 09:23:51;;;;;;;4.30;2.80;;;37.50;99.90;;;;;;4148789;28;20248;-83
2023/09/08 09:25:52;;;;;;;4.55;2.72;;;37.50;99.90;;;;;;4132209;28;20191;-82
2023/09/08 09:27:58;;;;;;;2.78;2.40;;;37.50;99.90;;;;;;4148525;28;20183;-82
2023/09/08 09:29:59;;;;;;;2.78;2.20;;;37.20;99.90;;;;;;4148485;28;20184;-82
2023/09/08 09:32:06;;;;;;;3.53;2.58;;;37.40;99.90;;;;;;4148378;28;20272;-82
2023/09/08 09:34:07;;;;;;;2.83;2.25;;;37.10;99.90;;;;;;4148203;28;20579;-82
2023/09/08 09:36:09;;;;;;;3.47;2.50;;;36.80;99.90;;;;;;4148320;28;20199;-82
2023/09/08 09:38:10;;;;;;;5.50;2.80;;;36.70;99.90;;;;;;4165495;28;20195;-82
2023/09/08 09:40:11;;;;;;;4.88;2.80;;;36.40;99.90;;;;;;4165763;28;20237;-82
2023/09/08 09:42:12;;;;;;;3.90;2.33;;;36.30;99.90;;;;;;4148192;28;20206;-83
2023/09/08 09:44:13;;;;;;;6.00;2.97;;;36.20;99.90;;;;;;4147594;28;20168;-82
2023/09/08 09:46:15;;;;;;;2.97;2.40;;;36.30;99.90;;;;;;4148094;28;20238;-81
2023/09/08 09:48:19;;;;;;;4.97;3.03;;;36.40;99.90;;;;;;4148217;28;20177;-82
2023/09/08 09:50:31;;;;;;;5.05;2.30;;;37.00;99.90;;;;;;4165575;28;20215;-85
2023/09/08 09:52:31;;;;;;;4.03;2.50;;;37.10;99.90;;;;;;4147939;28;20204;-81
2023/09/08 09:54:32;;;;;;;3.97;2.60;;;36.90;99.90;;;;;;4165607;28;20707;-82
2023/09/08 09:56:37;;;;;;;4.45;2.30;;;36.30;99.90;;;;;;4147944;28;20234;-82
2023/09/08 09:58:38;;;;;;;7.43;2.53;;;36.10;99.90;;;;;;4147892;28;20266;-93
2023/09/08 10:00:45;;;;;;;4.32;2.80;;;36.10;99.90;;;;;;4148161;28;20499;-81
2023/09/08 10:02:46;;;;;;;3.70;2.35;;;36.50;99.90;;;;;;4148023;28;20440;-91
2023/09/08 10:04:50;;;;;;;5.68;2.67;;;36.00;99.90;;;;;;4165641;28;20595;-84
2023/09/08 10:06:52;;;;;;;6.70;2.63;;;35.70;99.90;;;;;;4131667;28;20235;-93
2023/09/08 10:08:55;;;;;;;4.03;2.92;;;35.30;99.90;;;;;;4165318;28;20172;-85
2023/09/08 10:10:57;;;;;;;3.17;2.47;;;34.90;99.90;;;;;;4165227;28;20168;-81
2023/09/08 10:13:02;;;;;;;3.10;2.47;;;34.90;99.90;;;;;;4165103;28;20246;-81
2023/09/08 10:15:06;;;;;;;3.08;2.47;;;34.10;99.90;;;;;;4147769;28;20212;-82
2023/09/08 10:17:14;;;;;;;3.30;2.40;;;33.70;99.90;;;;;;4147797;28;20200;-81
2023/09/08 10:19:16;;;;;;;4.45;2.47;;;33.20;99.90;;;;;;4147933;28;20176;-80
2023/09/08 10:21:19;;;;;;;3.28;2.20;;;32.70;99.90;;;;;;4164124;28;20183;-94
2023/09/08 10:23:43;;;;;;;5.65;3.20;;;32.40;99.90;;;;;;4165298;28;20222;-83
2023/09/08 10:25:53;;;;;;;3.30;2.63;;;32.30;99.90;;;;;;4147804;28;20211;-92
2023/09/08 10:27:54;;;;;;;3.47;2.15;;;32.20;99.90;;;;;;4147915;28;20206;-92
2023/09/08 10:29:55;;;;;;;4.03;2.38;;;32.20;99.90;;;;;;4131161;28;20184;-83
2023/09/08 10:31:57;;;;;;;2.65;2.28;;;32.30;99.90;;;;;;4147378;28;20180;-91
2023/09/08 10:33:58;;;;;;;3.60;2.33;;;32.00;99.90;;;;;;4164679;28;20219;-94